Time;durP1;ratioP1;P1;durP2;ratioP2;P2;SDS_P1;SDS_P2;PMS_P1;PMS_P2;Temp;Humidity;BMP_temperature;BMP_pressure;BME280_temperature;BME280_humidity;BME280_pressure;Samples;Min_cycle;Max_cycle;Signal;HPM_P1;HPM_P2
2022/03/18 00:02:09;;;;;;;9.77;4.10;;;;;;;;;;5082459;28;20052;-61
2022/03/18 00:04:35;;;;;;;7.85;3.47;;;;;;;;;;5088562;28;20494;-61
2022/03/18 00:07:01;;;;;;;9.88;3.50;;;;;;;;;;5088862;28;20046;-61
2022/03/18 00:09:27;;;;;;;8.27;3.60;;;;;;;;;;5087278;28;20083;-61
2022/03/18 00:11:53;;;;;;;10.38;4.00;;;;;;;;;;5087792;28;20473;-61
2022/03/18 00:14:20;;;;;;;11.23;3.95;;;;;;;;;;5088420;28;20036;-61
2022/03/18 00:16:46;;;;;;;9.35;3.80;;;;;;;;;;5088183;28;20452;-61
2022/03/18 00:19:12;;;;;;;7.82;3.60;;;;;;;;;;5082070;28;20043;-61
2022/03/18 00:21:38;;;;;;;9.63;3.55;;;;;;;;;;5087738;28;20173;-61
2022/03/18 00:24:04;;;;;;;8.50;3.95;;;;;;;;;;5086609;28;20119;-61
2022/03/18 00:26:31;;;;;;;12.15;3.58;;;;;;;;;;5083334;28;20093;-61
2022/03/18 00:28:57;;;;;;;8.15;3.80;;;;;;;;;;5085154;28;20482;-61
2022/03/18 00:31:23;;;;;;;9.82;3.80;;;;;;;;;;5088781;28;20032;-61
2022/03/18 00:33:49;;;;;;;12.35;3.85;;;;;;;;;;5084397;28;20158;-61
2022/03/18 00:36:15;;;;;;;7.05;3.60;;;;;;;;;;5081161;28;20036;-61
2022/03/18 00:38:41;;;;;;;8.75;4.20;;;;;;;;;;5085605;28;20492;-61
2022/03/18 00:41:08;;;;;;;9.98;3.83;;;;;;;;;;5089649;28;20039;-61
2022/03/18 00:43:34;;;;;;;10.32;3.92;;;;;;;;;;5085144;28;20044;-61
2022/03/18 00:46:00;;;;;;;8.77;3.65;;;;;;;;;;5084474;28;20040;-61
2022/03/18 00:53:56;;;;;;;8.35;3.80;;;;;;;;;;5087388;28;20079;-61
2022/03/18 00:56:22;;;;;;;11.27;4.10;;;;;;;;;;5086284;28;20039;-61
2022/03/18 00:58:48;;;;;;;11.93;3.90;;;;;;;;;;5090364;28;20036;-61
2022/03/18 01:01:14;;;;;;;10.32;4.07;;;;;;;;;;5087435;28;20540;-61
2022/03/18 01:03:40;;;;;;;10.77;4.30;;;;;;;;;;5086860;28;20440;-61
2022/03/18 01:06:06;;;;;;;9.65;3.70;;;;;;;;;;5085338;28;20047;-61
2022/03/18 01:08:32;;;;;;;7.03;3.70;;;;;;;;;;5089346;28;20411;-61
2022/03/18 01:11:01;;;;;;;14.25;4.57;;;;;;;;;;5085465;28;20036;-61
2022/03/18 01:13:27;;;;;;;10.60;3.65;;;;;;;;;;5085900;28;20044;-61
2022/03/18 01:15:53;;;;;;;12.00;3.92;;;;;;;;;;5085602;28;20085;-61
2022/03/18 01:18:19;;;;;;;12.15;4.22;;;;;;;;;;5085889;28;20036;-61
2022/03/18 01:20:45;;;;;;;8.30;4.22;;;;;;;;;;5085782;28;20040;-61
2022/03/18 01:23:13;;;;;;;11.43;3.80;;;;;;;;;;5088379;28;20032;-61
2022/03/18 01:25:39;;;;;;;6.82;4.25;;;;;;;;;;5087015;28;20043;-61
2022/03/18 01:28:06;;;;;;;8.13;4.00;;;;;;;;;;5090534;28;20109;-61
2022/03/18 01:30:32;;;;;;;9.40;4.03;;;;;;;;;;5087621;28;20434;-61
2022/03/18 01:33:02;;;;;;;10.77;4.53;;;;;;;;;;5088524;28;20056;-61
2022/03/18 01:35:28;;;;;;;11.15;4.95;;;;;;;;;;5088058;28;20044;-61
2022/03/18 01:37:54;;;;;;;7.68;4.03;;;;;;;;;;5087001;28;20043;-61
2022/03/18 01:40:20;;;;;;;10.60;4.35;;;;;;;;;;5086713;28;20040;-61
2022/03/18 01:42:47;;;;;;;6.75;3.95;;;;;;;;;;5086197;28;20478;-61
2022/03/18 01:45:13;;;;;;;8.80;3.90;;;;;;;;;;5086048;28;20048;-61
2022/03/18 01:47:42;;;;;;;9.35;3.88;;;;;;;;;;5086639;28;20521;-61
2022/03/18 01:50:12;;;;;;;10.10;4.22;;;;;;;;;;5089739;28;20916;-61
2022/03/18 01:52:38;;;;;;;8.18;4.07;;;;;;;;;;5094264;28;20044;-61
2022/03/18 01:55:05;;;;;;;10.00;3.90;;;;;;;;;;5091307;28;20089;-61
2022/03/18 01:57:31;;;;;;;8.07;3.67;;;;;;;;;;5089579;28;20070;-61
2022/03/18 01:59:57;;;;;;;11.32;4.00;;;;;;;;;;5084354;28;20097;-61
2022/03/18 02:02:24;;;;;;;9.57;4.38;;;;;;;;;;5087942;28;20091;-61
2022/03/18 02:04:50;;;;;;;10.00;3.90;;;;;;;;;;5090928;28;20050;-61
2022/03/18 02:07:16;;;;;;;10.70;4.22;;;;;;;;;;5092448;28;20397;-61
2022/03/18 02:09:43;;;;;;;9.75;4.28;;;;;;;;;;5089772;28;20044;-61
2022/03/18 02:12:09;;;;;;;9.57;4.10;;;;;;;;;;5089705;28;20126;-61
2022/03/18 02:14:37;;;;;;;11.10;4.32;;;;;;;;;;5089123;28;20137;-61
2022/03/18 02:17:04;;;;;;;10.35;4.10;;;;;;;;;;5084463;28;20479;-61
2022/03/18 02:19:30;;;;;;;9.80;4.22;;;;;;;;;;5091770;28;20048;-61
2022/03/18 02:21:58;;;;;;;8.88;3.65;;;;;;;;;;5090137;28;20135;-61
2022/03/18 02:24:24;;;;;;;12.20;4.03;;;;;;;;;;5088283;28;20040;-61
2022/03/18 02:26:51;;;;;;;10.32;4.75;;;;;;;;;;5085006;28;20074;-61
2022/03/18 02:29:21;;;;;;;10.40;4.18;;;;;;;;;;5086207;28;20036;-61
2022/03/18 02:31:47;;;;;;;12.77;4.40;;;;;;;;;;5091046;28;20040;-61
2022/03/18 02:34:13;;;;;;;9.52;4.20;;;;;;;;;;5088776;28;20061;-61
2022/03/18 02:36:40;;;;;;;7.28;4.20;;;;;;;;;;5091799;28;20083;-63
2022/03/18 02:39:06;;;;;;;10.13;4.32;;;;;;;;;;5092035;28;20043;-61
2022/03/18 02:41:35;;;;;;;8.30;3.83;;;;;;;;;;5088890;28;20089;-61
2022/03/18 02:44:01;;;;;;;7.20;4.32;;;;;;;;;;5086949;28;20074;-61
2022/03/18 02:46:32;;;;;;;10.38;4.25;;;;;;;;;;5089761;28;20127;-61
2022/03/18 02:48:59;;;;;;;9.57;4.10;;;;;;;;;;5093284;28;20081;-61
2022/03/18 02:51:25;;;;;;;9.02;4.40;;;;;;;;;;5090335;28;20048;-61
2022/03/18 02:53:51;;;;;;;11.25;4.78;;;;;;;;;;5090894;28;20580;-61
2022/03/18 02:56:17;;;;;;;7.80;4.32;;;;;;;;;;5092419;28;20398;-61
2022/03/18 02:58:44;;;;;;;11.70;4.40;;;;;;;;;;5091907;28;20242;-61
2022/03/18 03:01:10;;;;;;;8.45;4.45;;;;;;;;;;5089785;28;20509;-61
2022/03/18 03:03:36;;;;;;;7.40;4.22;;;;;;;;;;5090328;28;20040;-61
2022/03/18 03:08:46;;;;;;;11.25;5.10;;;;;;;;;;5091797;28;20395;-61
2022/03/18 03:11:12;;;;;;;11.10;4.95;;;;;;;;;;5089057;28;20032;-61
2022/03/18 03:13:38;;;;;;;17.42;4.88;;;;;;;;;;5089558;28;20049;-61
2022/03/18 03:16:05;;;;;;;10.10;4.90;;;;;;;;;;5087313;28;20027;-61
2022/03/18 03:18:31;;;;;;;13.48;4.68;;;;;;;;;;5084622;28;20088;-61
2022/03/18 03:20:57;;;;;;;8.98;4.13;;;;;;;;;;5083253;28;20641;-61
2022/03/18 03:23:25;;;;;;;7.43;4.32;;;;;;;;;;5082663;28;20104;-61
2022/03/18 03:25:52;;;;;;;11.25;4.88;;;;;;;;;;5082002;28;20055;-61
2022/03/18 03:28:18;;;;;;;13.32;4.50;;;;;;;;;;5087271;28;20043;-61
2022/03/18 03:30:44;;;;;;;9.40;4.72;;;;;;;;;;5089432;28;20089;-61
2022/03/18 03:33:10;;;;;;;9.40;5.43;;;;;;;;;;5091083;28;20039;-61
2022/03/18 03:35:37;;;;;;;10.30;4.28;;;;;;;;;;5089492;28;20040;-61
2022/03/18 03:38:04;;;;;;;7.50;4.15;;;;;;;;;;5087860;28;20024;-61
2022/03/18 03:40:30;;;;;;;8.45;4.32;;;;;;;;;;5090339;28;20067;-61
2022/03/18 03:42:56;;;;;;;8.93;4.40;;;;;;;;;;5088979;28;20132;-61
2022/03/18 03:45:22;;;;;;;8.40;4.93;;;;;;;;;;5091347;28;20063;-61
2022/03/18 03:47:48;;;;;;;11.95;5.10;;;;;;;;;;5085996;28;20071;-61
2022/03/18 03:50:15;;;;;;;7.97;4.47;;;;;;;;;;5085452;28;20048;-61
2022/03/18 03:52:41;;;;;;;14.07;4.90;;;;;;;;;;5090099;28;20071;-61
2022/03/18 03:55:08;;;;;;;11.40;4.70;;;;;;;;;;5089699;28;20039;-61
2022/03/18 03:57:34;;;;;;;12.95;4.13;;;;;;;;;;5086839;28;20040;-61
2022/03/18 04:00:00;;;;;;;11.10;5.63;;;;;;;;;;5085974;28;20056;-61
2022/03/18 04:02:29;;;;;;;10.45;5.20;;;;;;;;;;5086193;28;20043;-61
2022/03/18 04:04:57;;;;;;;12.18;5.30;;;;;;;;;;5089192;28;20044;-61
2022/03/18 04:07:25;;;;;;;10.73;5.00;;;;;;;;;;5088413;28;20041;-60
2022/03/18 04:09:53;;;;;;;11.32;4.97;;;;;;;;;;5083362;28;20071;-61
2022/03/18 04:12:20;;;;;;;10.57;5.20;;;;;;;;;;5086973;28;20052;-61
2022/03/18 04:14:47;;;;;;;10.35;5.10;;;;;;;;;;5086539;28;20506;-61
2022/03/18 04:17:13;;;;;;;9.68;5.20;;;;;;;;;;5089486;28;20040;-61
2022/03/18 04:19:39;;;;;;;9.25;4.93;;;;;;;;;;5086581;28;20043;-61
2022/03/18 04:22:05;;;;;;;12.40;5.15;;;;;;;;;;5090859;28;20406;-61
2022/03/18 04:24:31;;;;;;;7.95;4.82;;;;;;;;;;5089521;28;20506;-61
2022/03/18 04:26:57;;;;;;;12.05;5.10;;;;;;;;;;5084321;28;20501;-61
2022/03/18 04:29:23;;;;;;;10.68;5.10;;;;;;;;;;5082265;28;20390;-61
2022/03/18 04:31:49;;;;;;;11.25;5.13;;;;;;;;;;5084987;28;20449;-61
2022/03/18 04:34:16;;;;;;;10.50;5.13;;;;;;;;;;5088760;28;20028;-60
2022/03/18 04:36:42;;;;;;;10.07;5.35;;;;;;;;;;5089583;28;20045;-61
2022/03/18 04:39:08;;;;;;;9.45;4.55;;;;;;;;;;5087562;28;20631;-61
2022/03/18 04:41:34;;;;;;;8.93;4.97;;;;;;;;;;5083578;28;20214;-61
2022/03/18 04:44:03;;;;;;;10.23;5.13;;;;;;;;;;5085235;28;20204;-61
2022/03/18 04:46:31;;;;;;;9.15;4.20;;;;;;;;;;5090470;28;20048;-61
2022/03/18 04:48:57;;;;;;;12.60;4.75;;;;;;;;;;5089552;28;20078;-61
2022/03/18 04:51:23;;;;;;;10.60;4.80;;;;;;;;;;5087704;28;20055;-61
2022/03/18 04:53:49;;;;;;;11.18;5.20;;;;;;;;;;5088437;28;20048;-61
2022/03/18 04:59:01;;;;;;;9.63;4.70;;;;;;;;;;5089451;28;20380;-61
2022/03/18 05:01:27;;;;;;;6.50;4.57;;;;;;;;;;5085858;28;20083;-61
2022/03/18 05:03:54;;;;;;;12.00;5.20;;;;;;;;;;5087293;28;20392;-61
2022/03/18 05:06:20;;;;;;;8.18;5.15;;;;;;;;;;5088508;28;20406;-61
2022/03/18 05:08:46;;;;;;;13.90;4.55;;;;;;;;;;5090292;28;20047;-61
2022/03/18 05:11:12;;;;;;;9.48;4.57;;;;;;;;;;5088452;28;20043;-61
2022/03/18 05:13:38;;;;;;;10.73;5.72;;;;;;;;;;5086642;28;20391;-60
2022/03/18 05:16:05;;;;;;;9.98;5.43;;;;;;;;;;5086411;28;20036;-61
2022/03/18 05:18:31;;;;;;;9.98;4.95;;;;;;;;;;5088517;28;20051;-61
2022/03/18 05:20:57;;;;;;;10.82;5.35;;;;;;;;;;5079694;28;20037;-61
2022/03/18 05:23:23;;;;;;;10.35;4.97;;;;;;;;;;5082913;28;20048;-61
2022/03/18 05:25:49;;;;;;;9.60;5.20;;;;;;;;;;5084936;28;20043;-61
2022/03/18 05:28:17;;;;;;;10.23;5.97;;;;;;;;;;5086340;28;20402;-61
2022/03/18 05:30:44;;;;;;;9.95;5.03;;;;;;;;;;5088941;28;20071;-61
2022/03/18 05:33:10;;;;;;;10.75;5.32;;;;;;;;;;5086183;28;20176;-61
2022/03/18 05:35:36;;;;;;;10.05;5.20;;;;;;;;;;5088856;28;20507;-61
2022/03/18 05:38:02;;;;;;;12.13;5.90;;;;;;;;;;5090043;28;20390;-61
2022/03/18 05:40:28;;;;;;;11.23;5.60;;;;;;;;;;5087183;28;20085;-61
2022/03/18 05:42:54;;;;;;;9.25;4.80;;;;;;;;;;5082149;28;20055;-61
2022/03/18 05:45:22;;;;;;;9.48;5.13;;;;;;;;;;5085531;28;20078;-61
2022/03/18 05:47:49;;;;;;;10.25;5.20;;;;;;;;;;5086147;28;20043;-61
2022/03/18 05:50:16;;;;;;;8.82;4.70;;;;;;;;;;5088139;28;20036;-61
2022/03/18 05:52:45;;;;;;;10.40;5.50;;;;;;;;;;5087344;28;20443;-61
2022/03/18 05:55:11;;;;;;;14.20;5.30;;;;;;;;;;5087125;28;20486;-61
2022/03/18 05:57:37;;;;;;;12.68;5.50;;;;;;;;;;5085603;28;20037;-61
2022/03/18 06:00:04;;;;;;;11.27;5.55;;;;;;;;;;5084590;28;20060;-61
2022/03/18 06:02:30;;;;;;;8.85;5.15;;;;;;;;;;5089165;28;20461;-61
2022/03/18 06:04:57;;;;;;;11.73;5.90;;;;;;;;;;5087138;28;20040;-61
2022/03/18 06:07:23;;;;;;;7.25;4.97;;;;;;;;;;5083088;28;20114;-61
2022/03/18 06:12:33;;;;;;;11.68;5.22;;;;;;;;;;5088828;28;20060;-61
2022/03/18 06:14:59;;;;;;;10.07;5.60;;;;;;;;;;5089053;28;20043;-61
2022/03/18 06:17:25;;;;;;;12.48;5.90;;;;;;;;;;5088702;28;20505;-61
2022/03/18 06:19:51;;;;;;;10.43;5.40;;;;;;;;;;5087507;28;20047;-61
2022/03/18 06:22:17;;;;;;;14.10;5.80;;;;;;;;;;5089373;28;20039;-61
2022/03/18 06:24:44;;;;;;;12.27;5.78;;;;;;;;;;5087001;28;20061;-61
2022/03/18 06:27:10;;;;;;;9.77;5.95;;;;;;;;;;5089293;28;20118;-61
2022/03/18 06:29:37;;;;;;;13.32;6.45;;;;;;;;;;5085528;28;20062;-61
2022/03/18 06:32:03;;;;;;;14.13;6.10;;;;;;;;;;5076869;28;20040;-61
2022/03/18 06:34:29;;;;;;;12.13;5.65;;;;;;;;;;5089376;28;20035;-61
2022/03/18 06:36:57;;;;;;;15.40;8.52;;;;;;;;;;5088203;28;20039;-61
2022/03/18 06:39:25;;;;;;;18.52;8.15;;;;;;;;;;5103649;28;20437;-64
2022/03/18 06:41:51;;;;;;;12.45;7.65;;;;;;;;;;5089114;28;20100;-61
2022/03/18 06:44:18;;;;;;;10.48;6.28;;;;;;;;;;5081673;28;20057;-61
2022/03/18 06:46:44;;;;;;;12.10;6.63;;;;;;;;;;5087339;28;20392;-62
2022/03/18 06:49:10;;;;;;;13.45;6.35;;;;;;;;;;5091829;28;20483;-61
2022/03/18 06:51:37;;;;;;;12.23;6.15;;;;;;;;;;5091910;28;20378;-61
2022/03/18 06:54:03;;;;;;;13.90;7.57;;;;;;;;;;5090310;28;20400;-61
2022/03/18 06:56:30;;;;;;;14.13;6.95;;;;;;;;;;5093210;28;20028;-61
2022/03/18 06:58:56;;;;;;;10.75;6.55;;;;;;;;;;5092475;28;20098;-61
2022/03/18 07:01:22;;;;;;;10.88;5.75;;;;;;;;;;5089983;28;20052;-61
2022/03/18 07:03:49;;;;;;;11.85;6.47;;;;;;;;;;5091992;28;20043;-61
2022/03/18 07:06:15;;;;;;;8.55;6.03;;;;;;;;;;5091844;28;20039;-61
2022/03/18 07:08:41;;;;;;;13.27;6.57;;;;;;;;;;5089917;28;20039;-61
2022/03/18 07:11:07;;;;;;;13.05;6.57;;;;;;;;;;5089977;28;20105;-61
2022/03/18 07:13:34;;;;;;;13.10;6.43;;;;;;;;;;5092029;28;20112;-61
2022/03/18 07:17:55;;;;;;;12.70;6.93;;;;;;;;;;5092622;28;20127;-61
2022/03/18 07:18:46;;;;;;;13.10;6.30;;;;;;;;;;5090600;28;20036;-61
2022/03/18 07:21:12;;;;;;;14.10;6.65;;;;;;;;;;5089927;28;20474;-61
2022/03/18 07:23:38;;;;;;;15.20;6.68;;;;;;;;;;5092198;28;20055;-61
2022/03/18 07:26:04;;;;;;;16.75;8.30;;;;;;;;;;5092787;28;20085;-61
2022/03/18 07:28:30;;;;;;;23.30;8.32;;;;;;;;;;5091564;28;20097;-61
2022/03/18 07:30:56;;;;;;;19.30;10.25;;;;;;;;;;5091765;28;20493;-61
2022/03/18 07:33:22;;;;;;;20.48;11.95;;;;;;;;;;5087826;28;20074;-61
2022/03/18 07:35:48;;;;;;;23.05;11.52;;;;;;;;;;5090557;28;20043;-61
2022/03/18 07:38:14;;;;;;;24.95;13.35;;;;;;;;;;5086287;28;20043;-61
2022/03/18 07:40:40;;;;;;;28.67;13.45;;;;;;;;;;5091313;28;20085;-61
2022/03/18 07:43:08;;;;;;;24.17;13.80;;;;;;;;;;5091303;28;20047;-61
2022/03/18 07:45:36;;;;;;;26.73;14.73;;;;;;;;;;5090330;28;20410;-62
2022/03/18 07:48:03;;;;;;;27.15;15.50;;;;;;;;;;5088097;28;20137;-61
2022/03/18 07:50:30;;;;;;;26.63;16.10;;;;;;;;;;5090240;28;20032;-61
2022/03/18 07:52:58;;;;;;;31.13;15.25;;;;;;;;;;5090918;28;20047;-61
2022/03/18 07:55:25;;;;;;;32.00;16.80;;;;;;;;;;5090934;28;20032;-61
2022/03/18 07:57:52;;;;;;;30.45;15.00;;;;;;;;;;5091732;28;20038;-61
2022/03/18 08:00:18;;;;;;;29.48;14.52;;;;;;;;;;5091447;28;20078;-61
2022/03/18 08:02:46;;;;;;;28.52;16.33;;;;;;;;;;5091560;28;20106;-61
2022/03/18 08:05:12;;;;;;;25.05;15.95;;;;;;;;;;5091483;28;20418;-61
2022/03/18 08:07:42;;;;;;;30.10;15.40;;;;;;;;;;5091835;28;20047;-61
2022/03/18 08:10:09;;;;;;;27.00;14.65;;;;;;;;;;5091617;28;20082;-61
2022/03/18 08:12:36;;;;;;;22.42;14.45;;;7.00;99.90;;;;;;5091876;28;20479;-61
2022/03/18 08:15:06;;;;;;;30.52;14.68;;;;;;;;;;5091654;28;20032;-61
2022/03/18 08:17:33;;;;;;;28.05;13.88;;;;;;;;;;5088078;28;20070;-61
2022/03/18 08:19:59;;;;;;;22.38;13.20;;;;;;;;;;5091404;28;20028;-61
2022/03/18 08:22:26;;;;;;;25.10;15.27;;;7.40;99.90;;;;;;5091549;28;20984;-61
2022/03/18 08:24:52;;;;;;;22.70;13.75;;;;;;;;;;5088837;28;20032;-61
2022/03/18 08:27:18;;;;;;;22.02;12.10;;;;;;;;;;5091004;28;20372;-61
2022/03/18 08:29:45;;;;;;;25.48;12.98;;;;;;;;;;5091182;28;20044;-61
2022/03/18 08:32:15;;;;;;;20.42;12.43;;;8.00;99.90;;;;;;5091427;28;20079;-61
2022/03/18 08:34:42;;;;;;;24.95;11.35;;;;;;;;;;5090465;28;20039;-61
2022/03/18 08:37:09;;;;;;;25.52;11.00;;;;;;;;;;5091224;28;20113;-61
2022/03/18 08:39:36;;;;;;;21.60;11.02;;;;;;;;;;5089312;28;20052;-61
2022/03/18 08:42:02;;;;;;;18.95;12.02;;;;;;;;;;5091093;28;20043;-61
2022/03/18 08:44:29;;;;;;;24.00;11.65;;;;;;;;;;5090096;28;20046;-62
2022/03/18 08:46:56;;;;;;;17.83;10.52;;;;;;;;;;5091141;28;20071;-61
2022/03/18 08:49:22;;;;;;;20.48;10.93;;;;;;;;;;5090567;28;20078;-61
2022/03/18 08:51:48;;;;;;;18.27;10.57;;;;;;;;;;5089753;28;20044;-62
2022/03/18 08:54:14;;;;;;;17.75;9.65;;;;;;;;;;5089935;28;20037;-61
2022/03/18 08:56:40;;;;;;;20.50;9.88;;;;;;;;;;5090751;28;20047;-61
2022/03/18 08:59:06;;;;;;;15.95;9.40;;;;;;;;;;5090458;28;20032;-61
2022/03/18 09:01:37;;;;;;;20.77;9.52;;;;;;;;;;5089222;28;20104;-62
2022/03/18 09:04:04;;;;;;;21.73;10.38;;;;;;;;;;5091204;28;20605;-61
2022/03/18 09:06:30;;;;;;;25.45;10.00;;;;;;;;;;5090738;28;20086;-61
2022/03/18 09:09:03;;;;;;;19.75;9.85;;;;;;;;;;5090997;28;20065;-61
2022/03/18 09:11:29;;;;;;;16.45;9.65;;;10.70;99.90;;;;;;5090694;28;20044;-61
2022/03/18 09:13:55;;;;;;;22.85;10.10;;;;;;;;;;5091093;28;20487;-61
2022/03/18 09:16:21;;;;;;;18.60;9.30;;;;;;;;;;5089540;28;20047;-62
2022/03/18 09:18:47;;;;;;;16.08;9.40;;;;;;;;;;5090861;28;20170;-62
2022/03/18 09:21:13;;;;;;;21.45;10.07;;;;;;;;;;5090578;28;20119;-61
2022/03/18 09:23:41;;;;;;;18.15;8.82;;;;;;;;;;5086746;28;20081;-61
2022/03/18 09:26:07;;;;;;;16.00;8.00;;;;;;;;;;5090060;28;20040;-61
2022/03/18 09:28:33;;;;;;;17.45;8.95;;;;;;;;;;5090255;28;20039;-62
2022/03/18 09:30:59;;;;;;;16.33;8.98;;;;;;;;;;5089144;28;20048;-62
2022/03/18 09:33:25;;;;;;;15.00;8.43;;;;;;;;;;5089681;28;20044;-62
2022/03/18 09:35:51;;;;;;;24.73;8.35;;;;;;;;;;5090286;28;20040;-61
2022/03/18 09:38:17;;;;;;;19.58;8.02;;;;;;;;;;5090302;28;20386;-62
2022/03/18 09:40:43;;;;;;;18.38;7.43;;;;;;;;;;5090529;28;20453;-62
2022/03/18 09:43:10;;;;;;;17.25;7.55;;;;;;;;;;5088178;28;20028;-62
2022/03/18 09:45:38;;;;;;;16.70;8.07;;;12.90;99.90;;;;;;5090376;28;20043;-61
2022/03/18 09:48:11;;;;;;;17.80;8.10;;;13.20;99.90;;;;;;5090361;28;20082;-62
2022/03/18 09:50:38;;;;;;;19.85;7.07;;;;;;;;;;5090317;28;20032;-61
2022/03/18 09:53:05;;;;;;;14.63;7.40;;;;;;;;;;5089885;28;20056;-62
2022/03/18 09:55:33;;;;;;;17.48;7.22;;;14.00;99.90;;;;;;5089246;28;20044;-62
2022/03/18 09:57:59;;;;;;;14.77;7.25;;;;;;;;;;5090463;28;20040;-61
2022/03/18 10:00:25;;;;;;;13.95;7.07;;;;;;;;;;5090208;28;20059;-62
2022/03/18 10:03:18;;;;;;;17.90;8.18;;;;;;;;;;5090183;28;20131;-62
2022/03/18 10:05:59;;;;;;;20.13;7.82;;;15.00;99.90;;;;;;5087383;28;20047;-62
2022/03/18 10:08:25;;;;;;;16.25;7.97;;;;;;;;;;5090371;28;20044;-62
2022/03/18 10:10:51;;;;;;;19.02;6.78;;;;;;;;;;5090256;28;20131;-61
2022/03/18 10:13:18;;;;;;;14.63;7.03;;;;;;;;;;5093900;28;20061;-62
2022/03/18 10:15:44;;;;;;;12.85;6.13;;;15.80;99.90;;;;;;5093804;28;20047;-62
2022/03/18 10:18:12;;;;;;;10.77;5.85;;;;;;;;;;5094267;28;20036;-62
2022/03/18 10:20:43;;;;;;;12.00;6.13;;;16.00;99.90;;;;;;5093945;28;20537;-62
2022/03/18 10:23:15;;;;;;;15.70;5.82;;;15.90;99.90;;;;;;5094349;28;20054;-62
2022/03/18 10:25:50;;;;;;;11.35;6.00;;;;;;;;;;5093530;28;20032;-62
2022/03/18 10:28:18;;;;;;;11.20;5.35;;;16.30;99.90;;;;;;5094388;28;20048;-63
2022/03/18 10:30:44;;;;;;;14.30;6.30;;;;;;;;;;5093713;28;20055;-62
2022/03/18 10:33:10;;;;;;;13.02;6.20;;;;;;;;;;5094326;28;20036;-62
2022/03/18 10:38:29;;;;;;;16.88;7.30;;;17.00;99.90;;;;;;5091150;28;20046;-62
2022/03/18 10:40:55;;;;;;;14.63;6.57;;;;;;;;;;5093514;28;20081;-62
2022/03/18 10:43:21;;;;;;;15.10;6.53;;;;;;;;;;5094023;28;20032;-62
2022/03/18 10:46:06;;;;;;;14.82;7.00;;;17.60;99.90;;;;;;5093774;28;20036;-62
2022/03/18 10:48:32;;;;;;;12.65;6.13;;;;;;;;;;5093690;28;20375;-62
2022/03/18 10:51:06;;;;;;;13.48;6.15;;;18.10;99.90;;;;;;5093416;28;20039;-62
2022/03/18 10:53:33;;;;;;;12.25;5.80;;;;;;;;;;5093570;28;20082;-62
2022/03/18 10:56:01;;;;;;;12.70;6.40;;;18.30;99.90;;;;;;5093335;28;20592;-62
2022/03/18 10:58:32;;;;;;;13.82;6.45;;;18.60;99.90;;;;;;5093153;28;20093;-62
2022/03/18 11:01:01;;;;;;;17.48;7.72;;;18.80;99.90;;;;;;5093023;28;20452;-61
2022/03/18 11:03:28;;;;;;;15.20;6.88;;;;;;;;;;5093587;28;20036;-63
2022/03/18 11:05:54;;;;;;;14.90;7.63;;;;;;;;;;5093049;28;20074;-62
2022/03/18 11:08:31;;;;;;;14.23;6.63;;;19.00;99.90;;;;;;5093319;28;20034;-62
2022/03/18 11:11:07;;;;;;;12.10;7.35;;;19.10;99.90;;;;;;5090636;28;20534;-62
2022/03/18 11:13:37;;;;;;;14.88;6.53;;;;;;;;;;5093293;28;20051;-62
2022/03/18 11:16:03;;;;;;;13.07;5.88;;;19.10;99.90;;;;;;5090703;28;20047;-62
2022/03/18 11:18:31;;;;;;;15.65;6.35;;;;;;;;;;5090788;28;20074;-62
2022/03/18 11:20:57;;;;;;;14.63;6.45;;;;;;;;;;5091396;28;20498;-62
2022/03/18 11:23:24;;;;;;;13.52;5.78;;;19.80;99.90;;;;;;5092508;28;20046;-62
2022/03/18 11:25:52;;;;;;;18.30;6.30;;;;;;;;;;5092722;28;20067;-62
2022/03/18 11:28:19;;;;;;;14.45;5.70;;;;;;;;;;5092985;28;20471;-63
2022/03/18 11:30:47;;;;;;;13.15;6.03;;;;;;;;;;5090799;28;20048;-62
2022/03/18 11:33:16;;;;;;;14.95;5.80;;;;;;;;;;5083133;28;20035;-63
2022/03/18 11:35:48;;;;;;;10.23;5.40;;;;;;;;;;5086580;28;20426;-63
2022/03/18 11:38:14;;;;;;;11.27;5.00;;;;;;;;;;5090881;28;20116;-63
2022/03/18 11:41:00;;;;;;;16.15;5.22;;;;;;;;;;5087515;28;20494;-63
2022/03/18 11:43:43;;;;;;;11.50;4.60;;;21.20;99.90;;;;;;5092128;28;20035;-63
2022/03/18 11:48:52;;;;;;;14.17;4.80;;;21.00;99.90;;;;;;5090872;28;20046;-62
2022/03/18 11:51:33;;;;;;;10.90;4.00;;;;;;;;;;5085675;28;20083;-62
2022/03/18 11:54:00;;;;;;;13.02;4.35;;;;;;;;;;5088855;28;20429;-63
2022/03/18 11:56:45;;;;;;;10.82;4.70;;;;;;;;;;5081814;28;20094;-62
2022/03/18 11:59:29;;;;;;;11.88;4.28;;;;;;;;;;5092026;28;20039;-63
2022/03/18 12:02:02;;;;;;;9.25;4.38;;;21.80;99.90;;;;;;5091123;28;20139;-62
2022/03/18 12:04:41;;;;;;;10.55;4.53;;;;;;;;;;5088443;28;20044;-63
2022/03/18 12:07:46;;;;;;;9.63;3.80;;;22.60;99.90;;;;;;5087952;28;20094;-63
2022/03/18 12:10:15;;;;;;;9.75;4.10;;;;;;;;;;5072848;28;20048;-62
2022/03/18 12:12:42;;;;;;;9.27;4.68;;;;;;;;;;5092068;28;20395;-63
2022/03/18 12:15:15;;;;;;;9.82;3.95;;;21.40;98.80;;;;;;5092105;28;20032;-62
2022/03/18 12:17:42;;;;;;;11.07;4.25;;;;;;;;;;5092157;28;20107;-62
2022/03/18 12:20:09;;;;;;;9.75;4.03;;;;;;;;;;5091799;28;20039;-62
2022/03/18 12:22:39;;;;;;;9.10;4.30;;;19.80;99.30;;;;;;5091930;28;20051;-63
2022/03/18 12:25:06;;;;;;;8.93;3.78;;;19.40;99.50;;;;;;5091316;28;20072;-63
2022/03/18 12:27:39;;;;;;;6.20;3.05;;;18.90;99.70;;;;;;5091672;28;20038;-62
2022/03/18 12:30:10;;;;;;;8.90;3.63;;;18.60;99.90;;;;;;5091558;28;20033;-62
2022/03/18 12:32:40;;;;;;;11.07;3.50;;;;;;;;;;5091435;28;20040;-62
2022/03/18 12:35:07;;;;;;;9.52;3.22;;;;;;;;;;5090432;28;20479;-62
2022/03/18 12:37:34;;;;;;;6.78;2.83;;;18.80;99.90;;;;;;5091307;28;20062;-62
2022/03/18 12:40:06;;;;;;;8.38;2.83;;;19.10;99.90;;;;;;5089325;28;20047;-62
2022/03/18 12:42:45;;;;;;;9.07;3.22;;;19.30;99.90;;;;;;5091582;28;20115;-62
2022/03/18 12:45:11;;;;;;;14.93;3.33;;;;;;;;;;5091148;28;20040;-62
2022/03/18 12:47:38;;;;;;;10.95;3.20;;;;;;;;;;5091235;28;20040;-62
2022/03/18 12:50:04;;;;;;;6.90;3.25;;;20.40;99.40;;;;;;5090802;28;20089;-62
2022/03/18 12:52:30;;;;;;;8.02;3.15;;;;;;;;;;5090926;28;20044;-62
2022/03/18 12:55:07;;;;;;;9.15;3.15;;;;;;;;;;5091496;28;20044;-62
2022/03/18 12:57:42;;;;;;;7.90;3.78;;;20.00;98.50;;;;;;5090961;28;20036;-62
2022/03/18 13:00:11;;;;;;;10.82;3.60;;;19.40;99.90;;;;;;5089186;28;20055;-62
2022/03/18 13:02:37;;;;;;;10.13;3.83;;;;;;;;;;5090377;28;20070;-62
2022/03/18 13:05:05;;;;;;;9.48;3.53;;;;;;;;;;5087308;28;20188;-62
2022/03/18 13:07:32;;;;;;;10.63;3.60;;;20.30;99.10;;;;;;5085694;28;20056;-62
2022/03/18 13:09:58;;;;;;;10.23;3.65;;;;;;;;;;5090150;28;20032;-63
2022/03/18 13:12:29;;;;;;;8.90;3.35;;;22.20;97.40;;;;;;5090309;28;20410;-62
2022/03/18 13:14:56;;;;;;;10.73;3.58;;;;;;;;;;5090431;28;20039;-63
2022/03/18 13:17:23;;;;;;;8.23;3.15;;;23.00;96.20;;;;;;5088944;28;20474;-62
2022/03/18 13:19:51;;;;;;;10.00;3.08;;;;;;;;;;5088775;28;20044;-62
2022/03/18 13:22:24;;;;;;;10.70;3.22;;;;;;;;;;5090743;28;20684;-63
2022/03/18 13:24:54;;;;;;;8.80;3.22;;;;;;;;;;5090179;28;20398;-63
2022/03/18 13:27:21;;;;;;;6.22;2.65;;;;;;;;;;5089404;28;20055;-63
2022/03/18 13:32:51;;;;;;;9.15;2.88;;;;;;;;;;5089999;28;20044;-63
2022/03/18 13:35:22;;;;;;;8.10;2.78;;;;;;;;;;5089906;28;20119;-62
2022/03/18 13:38:06;;;;;;;7.57;2.67;;;;;;;;;;5088919;28;20036;-62
2022/03/18 13:40:33;;;;;;;10.30;2.90;;;;;;;;;;5089511;28;20114;-62
2022/03/18 13:43:03;;;;;;;10.88;2.95;;;;;;;;;;5088806;28;20050;-62
2022/03/18 13:45:29;;;;;;;9.13;3.03;;;;;;;;;;5091017;28;20627;-63
2022/03/18 13:47:56;;;;;;;9.00;2.83;;;;;;;;;;5093031;28;20068;-62
2022/03/18 13:50:22;;;;;;;8.32;3.17;;;;;;;;;;5094009;28;20072;-63
2022/03/18 13:52:48;;;;;;;9.45;2.65;;;;;;;;;;5094127;28;20054;-63
2022/03/18 13:55:34;;;;;;;6.90;2.45;;;20.40;95.20;;;;;;5093237;28;20208;-63
2022/03/18 13:58:04;;;;;;;9.65;2.90;;;;;;;;;;5093617;28;20024;-63
2022/03/18 14:00:32;;;;;;;6.75;2.47;;;;;;;;;;5093863;28;20134;-63
2022/03/18 14:03:11;;;;;;;7.50;2.53;;;;;;;;;;5092882;28;20094;-63
2022/03/18 14:05:37;;;;;;;8.00;2.92;;;;;;;;;;5092431;28;20118;-63
2022/03/18 14:08:05;;;;;;;8.25;2.70;;;25.10;93.20;;;;;;5093824;28;20134;-63
2022/03/18 14:10:41;;;;;;;5.75;2.20;;;;;;;;;;5075864;28;20414;-63
2022/03/18 14:13:09;;;;;;;5.78;1.60;;;;;;;;;;5075774;28;20566;-63
2022/03/18 14:15:36;;;;;;;8.95;2.20;;;;;;;;;;5093409;28;20044;-63
2022/03/18 14:18:07;;;;;;;6.97;2.25;;;22.70;91.70;;;;;;5093676;28;20036;-63
2022/03/18 14:20:54;;;;;;;4.43;1.63;;;21.80;92.10;;;;;;5093546;28;20032;-63
2022/03/18 14:23:24;;;;;;;6.90;2.10;;;21.90;92.80;;;;;;5093538;28;20032;-62
2022/03/18 14:25:54;;;;;;;7.10;2.25;;;;;;;;;;5092729;28;20461;-62
2022/03/18 14:28:26;;;;;;;7.65;2.88;;;21.60;91.60;;;;;;5093791;28;20093;-63
2022/03/18 14:30:52;;;;;;;7.93;2.50;;;;;;;;;;5092512;28;20071;-62
2022/03/18 14:33:20;;;;;;;7.28;2.60;;;21.10;92.40;;;;;;5093369;28;20035;-63
2022/03/18 14:35:48;;;;;;;5.70;2.15;;;;;;;;;;5093599;28;20378;-62
2022/03/18 14:38:15;;;;;;;7.78;2.42;;;;;;;;;;5093357;28;20047;-63
2022/03/18 14:40:41;;;;;;;7.03;2.33;;;;;;;;;;5093870;28;20538;-62
2022/03/18 14:43:07;;;;;;;7.85;2.72;;;;;;;;;;5093398;28;20040;-63